.
WxDataArchive / Data Records for 2009-05-09
2009-05-08 May 2009 2009-05-10

Data Records for Saturday, 09 May 2009

Time	Temp	Chill	HIndex	Humid	Dewpt	 Wind 	HiWind	WindDir	Rain 	Barom 
-----	----	-----	------	-----	-----	------	------	-------	-----	----- 
00:00	59.6	59.6	59.6	94	57.9	0	0	---	0.00	29.689 
00:05	59.6	59.6	59.6	95	58.2	0	0	---	0.00	29.689 
00:10	59.5	59.5	59.5	95	58.1	0	0	---	0.00	29.689 
00:15	59.5	59.5	59.5	95	58.1	0	0	---	0.00	29.694 
00:20	59.3	59.3	59.3	95	57.9	0	0	---	0.00	29.694 
00:25	59.2	59.2	59.2	95	57.8	0	0	---	0.00	29.694 
00:30	59.2	59.2	59.2	95	57.8	0	0	---	0.00	29.697 
00:35	59.2	59.2	59.2	95	57.8	0	0	---	0.00	29.697 
00:40	59.3	59.3	59.3	95	57.9	0	0	---	0.00	29.697 
00:45	59.5	59.5	59.5	95	58.1	0	0	---	0.00	29.697 
00:50	59.3	59.3	59.3	95	57.9	0	0	---	0.00	29.697 
00:55	59.5	59.5	59.5	95	58.1	0	0	---	0.00	29.697 
01:00	59.5	59.5	59.5	95	58.1	0	0	---	0.00	29.695 
01:05	59.3	59.3	59.3	96	58.2	0	0	---	0.00	29.695 
01:10	59.3	59.3	59.3	96	58.2	0	0	---	0.00	29.695 
01:15	59.3	59.3	59.3	96	58.2	0	0	---	0.00	29.686 
01:20	59.5	59.5	59.5	96	58.4	0	0	---	0.00	29.686 
01:25	59.8	59.8	59.8	96	58.7	0	1	112	0.00	29.686 
01:30	59.8	59.8	59.8	96	58.7	0	1	112	0.00	29.684 
01:35	59.9	59.9	59.9	96	58.8	0	1	112	0.00	29.684 
01:40	59.9	59.9	59.9	96	58.8	0	0	---	0.00	29.684 
01:45	59.8	59.8	59.8	96	58.7	0	0	---	0.00	29.678 
01:50	59.8	59.8	59.8	96	58.7	0	0	---	0.00	29.678 
01:55	59.8	59.8	59.8	96	58.7	0	0	---	0.00	29.678 
02:00	59.8	59.8	59.8	96	58.7	0	1	112	0.00	29.677 
02:05	59.8	59.8	59.8	96	58.7	0	1	112	0.00	29.677 
02:10	60.1	60.1	60.1	96	59.0	0	1	112	0.00	29.677 
02:15	60.1	60.1	60.1	96	59.0	0	1	112	0.00	29.664 
02:20	60.1	60.1	60.1	96	59.0	0	1	112	0.00	29.664 
02:25	60.1	60.1	60.1	96	59.0	0	1	112	0.00	29.664 
02:30	60.2	60.2	60.2	96	59.1	0	1	112	0.00	29.665 
02:35	60.2	60.2	60.2	96	59.1	0	0	---	0.00	29.665 
02:40	60.1	60.1	60.1	96	59.0	0	0	---	0.00	29.665 
02:45	59.9	59.9	59.9	96	58.8	0	0	---	0.00	29.653 
02:50	59.9	59.9	59.9	96	58.8	0	0	---	0.00	29.653 
02:55	59.9	59.9	59.9	96	58.8	0	0	---	0.00	29.653 
03:00	59.9	59.9	59.9	96	58.8	0	0	---	0.00	29.650 
03:05	59.9	59.9	59.9	96	58.8	0	0	---	0.00	29.650 
03:10	60.2	60.2	60.2	96	59.1	0	1	112	0.00	29.650 
03:15	60.4	60.4	60.4	96	59.3	0	1	112	0.00	29.653 
03:20	60.5	60.5	60.5	96	59.4	0	2	135	0.00	29.653 
03:25	60.4	60.4	60.4	96	59.3	0	1	135	0.00	29.653 
03:30	60.2	60.2	60.2	96	59.1	0	0	---	0.00	29.638 
03:35	60.1	60.1	60.1	96	59.0	0	1	135	0.00	29.638 
03:40	60.1	60.1	60.1	96	59.0	0	3	225	0.00	29.638 
03:45	60.1	60.1	60.1	96	59.0	0	1	225	0.00	29.635 
03:50	60.1	60.1	60.1	96	59.0	0	2	225	0.00	29.635 
03:55	60.1	60.1	60.1	96	59.0	0	3	248	0.00	29.635 
04:00	60.2	60.2	60.2	96	59.1	1	3	248	0.00	29.630 
04:05	60.2	60.2	60.2	96	59.1	0	2	248	0.00	29.630 
04:10	60.2	60.2	60.2	96	59.1	0	1	248	0.00	29.630 
04:15	60.2	60.2	60.2	96	59.1	1	3	248	0.00	29.632 
04:20	60.4	60.4	60.4	96	59.3	0	2	248	0.00	29.632 
04:25	60.4	60.4	60.4	97	59.5	1	3	248	0.00	29.632 
04:30	60.5	60.5	60.5	97	59.6	1	3	315	0.00	29.623 
04:35	60.7	60.7	60.7	97	59.8	1	3	248	0.00	29.623 
04:40	60.7	60.7	60.7	97	59.8	1	3	225	0.00	29.623 
04:45	60.9	60.9	60.9	97	60.0	1	3	248	0.00	29.623 
04:50	60.9	60.9	60.9	97	60.0	1	3	270	0.00	29.623 
04:55	61.0	61.0	61.0	97	60.1	1	3	248	0.00	29.623 
05:00	61.0	61.0	61.0	96	59.8	1	6	225	0.00	29.628 
05:05	61.2	61.2	61.2	97	60.3	1	5	225	0.00	29.628 
05:10	61.2	61.2	61.2	96	60.0	1	7	248	0.00	29.628 
05:15	61.2	61.2	61.2	96	60.0	1	9	270	0.00	29.618 
05:20	61.2	61.2	61.2	96	60.0	2	4	248	0.00	29.618 
05:25	61.3	61.3	61.3	96	60.1	2	4	270	0.00	29.618 
05:30	61.3	61.3	61.3	96	60.1	2	5	270	0.00	29.620 
05:35	61.3	61.3	61.3	96	60.1	1	4	248	0.00	29.620 
05:40	61.3	61.3	61.3	96	60.1	2	6	248	0.00	29.620 
05:45	61.3	61.3	61.3	96	60.1	2	9	270	0.00	29.620 
05:50	61.3	61.3	61.3	96	60.1	3	6	248	0.00	29.620 
05:55	61.3	61.3	61.3	96	60.1	2	5	270	0.00	29.620 
06:00	61.2	61.2	61.2	96	60.0	2	4	270	0.00	29.609 
06:05	61.2	61.2	61.2	96	60.0	3	7	270	0.00	29.609 
06:10	61.2	61.2	61.2	96	60.0	2	7	270	0.00	29.609 
06:15	61.0	61.0	61.0	95	59.6	2	7	270	0.00	29.607 
06:20	61.0	61.0	61.0	95	59.6	2	5	248	0.00	29.607 
06:25	60.9	60.9	60.9	95	59.5	2	5	248	0.00	29.607 
06:30	60.9	60.9	60.9	94	59.2	2	5	248	0.00	29.614 
06:35	60.7	60.7	60.7	93	58.7	1	4	248	0.00	29.614 
06:40	60.7	60.7	60.7	93	58.7	2	6	248	0.00	29.614 
06:45	60.7	60.7	60.7	92	58.4	3	6	248	0.00	29.618 
06:50	60.7	60.7	60.7	91	58.1	2	7	248	0.00	29.618 
06:55	60.5	60.5	60.5	89	57.2	3	9	248	0.00	29.618 
07:00	60.5	60.5	60.5	84	55.6	3	8	270	0.00	29.620 
07:05	60.5	60.5	60.5	78	53.6	5	9	270	0.00	29.620 
07:10	60.7	60.7	60.7	75	52.7	5	16	270	0.00	29.620 
07:15	60.5	60.5	60.5	70	50.7	4	10	248	0.00	29.634 
07:20	60.4	60.4	60.4	68	49.8	4	10	270	0.00	29.634 
07:25	60.2	60.2	60.2	65	48.4	6	14	270	0.00	29.634 
07:30	59.9	59.9	59.9	66	48.5	4	9	270	0.00	29.645 
07:35	59.8	59.8	59.8	66	48.4	4	12	270	0.00	29.645 
07:40	59.6	59.6	59.6	63	47.0	5	12	270	0.00	29.645 
07:45	59.5	59.5	59.5	62	46.5	5	11	248	0.00	29.650 
07:50	59.5	59.5	59.5	60	45.6	4	9	270	0.00	29.650 
07:55	59.3	59.3	59.3	58	44.5	5	11	270	0.00	29.650 
08:00	59.3	59.3	59.3	57	44.1	5	20	270	0.00	29.655 
08:05	59.3	59.3	59.3	55	43.1	4	12	270	0.00	29.655 
08:10	59.3	59.3	59.3	53	42.2	5	10	270	0.00	29.655 
08:15	59.3	59.3	59.3	50	40.7	5	15	270	0.00	29.655 
08:20	59.2	59.2	59.2	50	40.6	6	14	270	0.00	29.655 
08:25	59.2	59.2	59.2	52	41.6	5	14	248	0.00	29.655 
08:30	59.0	59.0	59.0	52	41.4	5	11	270	0.00	29.654 
08:35	58.9	58.9	58.9	55	42.8	5	12	270	0.00	29.654 
08:40	58.9	58.9	58.9	55	42.8	5	13	270	0.00	29.654 
08:45	59.0	59.0	59.0	53	41.9	6	15	270	0.00	29.648 
08:50	59.2	59.2	59.2	58	44.4	5	11	270	0.00	29.648 
08:55	59.3	59.3	59.3	58	44.5	5	15	270	0.00	29.648 
09:00	59.2	59.2	59.2	59	44.9	5	13	270	0.00	29.657 
09:05	58.7	58.7	58.7	59	44.4	6	17	270	0.00	29.657 
09:10	58.3	58.3	58.3	61	44.9	6	12	270	0.00	29.657 
09:15	57.8	57.8	57.8	61	44.4	8	15	270	0.00	29.664 
09:20	57.3	57.3	57.3	61	44.0	7	16	270	0.00	29.664 
09:25	57.0	57.0	57.0	62	44.1	5	12	270	0.00	29.664 
09:30	57.0	57.0	57.0	63	44.5	5	11	270	0.00	29.672 
09:35	57.5	57.5	57.5	63	45.0	5	11	270	0.00	29.672 
09:40	58.1	58.1	58.1	61	44.7	5	12	270	0.00	29.672 
09:45	58.4	58.4	58.4	61	45.0	5	10	270	0.00	29.673 
09:50	58.7	58.7	58.7	61	45.3	4	12	270	0.00	29.673 
09:55	58.1	58.1	58.1	61	44.7	5	12	270	0.00	29.673 
10:00	57.3	57.3	57.3	62	44.4	6	13	270	0.00	29.686 
10:05	56.9	56.9	56.9	64	44.8	4	10	270	0.00	29.686 
10:10	56.9	56.9	56.9	65	45.3	4	12	270	0.00	29.686 
10:15	56.7	56.7	56.7	65	45.1	5	11	270	0.00	29.688 
10:20	56.6	56.6	56.6	65	45.0	6	14	270	0.00	29.688 
10:25	56.5	56.5	56.5	65	44.9	5	11	270	0.00	29.688 
10:30	56.3	56.3	56.3	66	45.1	4	9	270	0.00	29.683 
10:35	56.3	56.3	56.3	66	45.1	4	12	270	0.00	29.683 
10:40	56.2	56.2	56.2	67	45.4	4	9	270	0.00	29.683 
10:45	56.2	56.2	56.2	67	45.4	5	12	270	0.00	29.688 
10:50	56.6	56.6	56.6	68	46.2	5	17	270	0.00	29.688 
10:55	57.5	57.5	57.5	67	46.6	5	15	270	0.00	29.688 
11:00	58.4	58.4	58.4	65	46.7	5	12	270	0.00	29.689 
11:05	59.2	59.2	59.2	65	47.4	5	10	270	0.00	29.689 
11:10	59.3	59.3	59.3	64	47.1	4	11	270	0.00	29.689 
11:15	58.7	58.7	58.7	64	46.6	5	12	270	0.00	29.695 
11:20	58.1	58.1	58.1	65	46.4	6	14	270	0.00	29.695 
11:25	57.6	57.6	57.6	65	45.9	6	14	270	0.00	29.695 
11:30	57.5	57.5	57.5	66	46.2	5	11	270	0.00	29.707 
11:35	57.5	57.5	57.5	66	46.2	5	11	270	0.00	29.707 
11:40	57.3	57.3	57.3	66	46.0	7	14	270	0.00	29.707 
11:45	57.3	57.3	57.3	67	46.4	5	12	270	0.00	29.715 
11:50	57.3	57.3	57.3	67	46.4	5	14	270	0.00	29.715 
11:55	57.3	57.3	57.3	67	46.4	5	11	270	0.00	29.715 
12:00	57.2	57.2	57.2	68	46.7	6	13	270	0.00	29.724 
12:05	57.0	57.0	57.0	68	46.5	6	11	270	0.00	29.724 
12:10	57.0	57.0	57.0	68	46.5	6	10	270	0.00	29.724 
12:15	57.3	57.3	57.3	68	46.8	5	10	270	0.00	29.740 
12:20	57.2	57.2	57.2	68	46.7	7	13	270	0.00	29.740 
12:25	57.2	57.2	57.2	69	47.1	4	9	270	0.00	29.740 
12:30	57.3	57.3	57.3	69	47.2	5	10	270	0.00	29.753 
12:35	58.3	58.3	58.3	69	48.2	4	11	292	0.00	29.753 
12:40	58.7	58.7	58.7	68	48.2	5	10	270	0.00	29.753 
12:45	59.5	59.5	59.5	65	47.7	5	11	270	0.00	29.755 
12:50	59.2	59.2	59.2	64	47.0	6	12	270	0.00	29.755 
12:55	59.0	59.0	59.0	64	46.8	7	14	270	0.00	29.755 
13:00	58.4	58.4	58.4	64	46.3	7	15	270	0.00	29.770 
13:05	58.4	58.4	58.4	63	45.9	6	13	270	0.00	29.770 
13:10	58.6	58.6	58.6	62	45.6	6	13	270	0.00	29.770 
13:15	58.9	58.9	58.9	62	45.9	7	15	270	0.00	29.778 
13:20	59.2	59.2	59.2	64	47.0	6	12	270	0.00	29.778 
13:25	59.2	59.2	59.2	63	46.6	6	12	270	0.00	29.778 
13:30	58.7	58.7	58.7	64	46.6	6	12	270	0.00	29.793 
13:35	58.4	58.4	58.4	65	46.7	5	13	270	0.00	29.793 
13:40	58.1	58.1	58.1	66	46.8	5	13	270	0.00	29.793 
13:45	58.1	58.1	58.1	65	46.4	6	11	270	0.00	29.802 
13:50	58.4	58.4	58.4	65	46.7	6	11	270	0.00	29.802 
13:55	58.3	58.3	58.3	66	47.0	6	12	270	0.00	29.802 
14:00	57.6	57.6	57.6	67	46.7	6	18	270	0.00	29.818 
14:05	56.9	56.9	56.9	68	46.4	6	13	270	0.00	29.818 
14:10	56.9	56.9	56.9	69	46.8	4	11	270	0.00	29.818 
14:15	56.7	56.7	56.7	69	46.6	5	11	270	0.00	29.834 
14:20	57.0	57.0	57.0	70	47.3	5	11	270	0.00	29.834 
14:25	57.2	57.2	57.2	69	47.1	5	11	270	0.00	29.834 
14:30	57.0	57.0	57.0	68	46.5	5	13	270	0.00	29.839 
14:35	56.0	56.0	56.0	69	46.0	6	14	270	0.00	29.839 
14:40	55.6	55.6	55.6	71	46.3	5	10	270	0.00	29.839 
14:45	55.9	55.9	55.9	71	46.6	6	10	270	0.00	29.851 
14:50	55.9	55.9	55.9	70	46.3	6	12	270	0.00	29.851 
14:55	55.4	55.4	55.4	71	46.2	5	11	270	0.00	29.851 
15:00	55.1	55.1	55.1	72	46.2	5	11	270	0.00	29.866 
15:05	55.3	55.3	55.3	74	47.2	3	7	270	0.00	29.866 
15:10	55.3	55.3	55.3	72	46.4	4	10	292	0.00	29.866 
15:15	55.1	55.1	55.1	73	46.6	4	8	292	0.00	29.881 
15:20	55.1	55.1	55.1	73	46.6	5	11	270	0.00	29.881 
15:25	55.0	55.0	55.0	73	46.5	5	11	292	0.00	29.881 
15:30	55.3	55.3	55.3	73	46.8	4	7	292	0.00	29.888 
15:35	56.5	56.5	56.5	73	47.9	4	7	292	0.00	29.888 
15:40	56.5	56.5	56.5	70	46.8	5	12	292	0.00	29.888 
15:45	57.0	57.0	57.0	73	48.4	3	9	315	0.00	29.895 
15:50	57.0	57.0	57.0	69	46.9	5	13	270	0.00	29.895 
15:55	56.5	56.5	56.5	69	46.5	5	9	270	0.00	29.895 
16:00	56.3	56.3	56.3	72	47.4	4	7	270	0.00	29.901 
16:05	56.6	56.6	56.6	71	47.3	4	10	292	0.00	29.901 
16:10	56.6	56.6	56.6	71	47.3	4	12	270	0.00	29.901 
16:15	57.0	57.0	57.0	71	47.7	4	9	270	0.00	29.910 
16:20	57.3	57.3	57.3	70	47.6	4	9	270	0.00	29.910 
16:25	58.3	58.3	58.3	70	48.6	3	6	270	0.00	29.910 
16:30	58.9	58.9	58.9	66	47.6	4	10	270	0.00	29.910 
16:35	58.7	58.7	58.7	64	46.6	4	10	270	0.00	29.910 
16:40	58.9	58.9	58.9	65	47.2	4	13	270	0.00	29.910 
16:45	59.5	59.5	59.5	63	46.9	3	9	248	0.00	29.915 
16:50	59.6	59.6	59.6	63	47.0	2	9	315	0.00	29.915 
16:55	59.8	59.8	59.8	61	46.3	3	10	315	0.00	29.915 
17:00	60.4	60.4	60.4	60	46.4	2	7	315	0.00	29.922 
17:05	61.0	61.0	61.0	58	46.1	3	6	315	0.00	29.922 
17:10	61.5	61.5	61.5	53	44.2	4	10	315	0.00	29.922 
17:15	61.2	61.2	61.2	53	43.9	4	10	292	0.00	29.920 
17:20	61.2	61.2	61.2	52	43.4	3	9	315	0.00	29.920 
17:25	61.5	61.5	61.5	52	43.7	3	7	315	0.00	29.920 
17:30	61.6	61.6	61.6	51	43.3	2	7	315	0.00	29.929 
17:35	61.6	61.6	61.6	52	43.8	3	7	292	0.00	29.929 
17:40	61.6	61.6	61.6	53	44.3	3	6	315	0.00	29.929 
17:45	61.6	61.6	61.6	50	42.8	4	7	270	0.00	29.937 
17:50	61.6	61.6	61.6	50	42.8	3	6	315	0.00	29.937 
17:55	61.5	61.5	61.5	50	42.7	5	8	270	0.00	29.937 
18:00	61.0	61.0	61.0	50	42.2	4	9	270	0.00	29.943 
18:05	60.7	60.7	60.7	51	42.5	4	12	315	0.00	29.943 
18:10	60.4	60.4	60.4	50	41.7	5	11	270	0.00	29.943 
18:15	60.1	60.1	60.1	51	41.9	4	10	315	0.00	29.956 
18:20	59.9	59.9	59.9	51	41.7	4	8	315	0.00	29.956 
18:25	60.1	60.1	60.1	52	42.4	3	6	270	0.00	29.956 
18:30	60.4	60.4	60.4	52	42.7	3	5	270	0.00	29.957 
18:35	60.2	60.2	60.2	52	42.5	3	7	270	0.00	29.957 
18:40	59.8	59.8	59.8	54	43.1	4	7	292	0.00	29.957 
18:45	59.6	59.6	59.6	54	42.9	3	5	270	0.00	29.959 
18:50	59.6	59.6	59.6	54	42.9	4	7	270	0.00	29.959 
18:55	59.5	59.5	59.5	54	42.8	2	5	270	0.00	29.959 
19:00	59.5	59.5	59.5	52	41.9	3	9	315	0.00	29.962 
19:05	59.3	59.3	59.3	53	42.2	3	6	315	0.00	29.962 
19:10	59.2	59.2	59.2	53	42.1	3	7	315	0.00	29.962 
19:15	59.0	59.0	59.0	53	41.9	3	7	315	0.00	29.965 
19:20	58.9	58.9	58.9	54	42.3	2	10	315	0.00	29.965 
19:25	58.9	58.9	58.9	54	42.3	2	4	292	0.00	29.965 
19:30	58.9	58.9	58.9	54	42.3	3	7	270	0.00	29.966 
19:35	58.6	58.6	58.6	54	42.0	4	7	315	0.00	29.966 
19:40	58.4	58.4	58.4	55	42.3	2	6	270	0.00	29.966 
19:45	58.3	58.3	58.3	55	42.2	2	6	292	0.00	29.978 
19:50	58.1	58.1	58.1	55	42.0	3	6	270	0.00	29.978 
19:55	57.8	57.8	57.8	56	42.2	2	7	270	0.00	29.978 
20:00	57.6	57.6	57.6	57	42.5	3	6	315	0.00	29.982 
20:05	57.3	57.3	57.3	58	42.6	2	5	315	0.00	29.982 
20:10	57.0	57.0	57.0	58	42.4	2	5	315	0.00	29.982 
20:15	56.7	56.7	56.7	59	42.5	2	4	315	0.00	29.992 
20:20	56.5	56.5	56.5	60	42.8	2	5	292	0.00	29.992 
20:25	56.2	56.2	56.2	60	42.5	2	6	315	0.00	29.992 
20:30	56.0	56.0	56.0	61	42.7	2	4	292	0.00	29.999 
20:35	55.7	55.7	55.7	62	42.9	1	3	248	0.00	29.999 
20:40	55.6	55.6	55.6	62	42.8	2	4	292	0.00	29.999 
20:45	55.3	55.3	55.3	63	42.9	1	5	270	0.00	30.010 
20:50	55.0	55.0	55.0	63	42.6	1	4	315	0.00	30.010 
20:55	54.8	54.8	54.8	64	42.9	1	2	315	0.00	30.010 
21:00	54.5	54.5	54.5	65	43.0	0	2	315	0.00	30.022 
21:05	54.2	54.2	54.2	65	42.7	0	3	315	0.00	30.022 
21:10	53.9	53.9	53.9	66	42.8	0	3	270	0.00	30.022 
21:15	53.6	53.6	53.6	67	42.9	0	2	270	0.00	30.031 
21:20	53.6	53.6	53.6	68	43.3	0	2	270	0.00	30.031 
21:25	53.5	53.5	53.5	68	43.2	0	2	270	0.00	30.031 
21:30	53.3	53.3	53.3	69	43.4	1	4	270	0.00	30.037 
21:35	53.2	53.2	53.2	69	43.3	0	1	270	0.00	30.037 
21:40	53.1	53.1	53.1	70	43.6	0	1	270	0.00	30.037 
21:45	52.8	52.8	52.8	71	43.7	0	1	270	0.00	30.044 
21:50	52.6	52.6	52.6	72	43.8	0	1	270	0.00	30.044 
21:55	52.3	52.3	52.3	73	43.9	0	1	270	0.00	30.044 
22:00	52.2	52.2	52.2	73	43.8	0	1	270	0.00	30.054 
22:05	52.0	52.0	52.0	73	43.6	0	1	270	0.00	30.054 
22:10	51.9	51.9	51.9	74	43.9	0	0	---	0.00	30.054 
22:15	51.6	51.6	51.6	75	43.9	0	0	---	0.00	30.060 
22:20	51.3	51.3	51.3	75	43.6	0	0	---	0.00	30.060 
22:25	50.8	50.8	50.8	76	43.5	0	0	---	0.00	30.060 
22:30	50.5	50.5	50.5	77	43.6	0	0	---	0.00	30.062 
22:35	50.4	50.4	50.4	78	43.8	0	0	---	0.00	30.062 
22:40	50.1	50.1	50.1	78	43.5	0	0	---	0.00	30.062 
22:45	49.8	49.8	49.8	79	43.6	0	0	---	0.00	30.065 
22:50	49.6	49.6	49.6	81	44.0	0	1	270	0.00	30.065 
22:55	49.6	49.6	49.6	81	44.0	0	0	---	0.00	30.065 
23:00	49.6	49.6	49.6	81	44.0	0	1	270	0.00	30.074 
23:05	49.6	49.6	49.6	81	44.0	0	0	---	0.00	30.074 
23:10	49.5	49.5	49.5	82	44.2	0	0	---	0.00	30.074 
23:15	49.2	49.2	49.2	82	43.9	0	0	---	0.00	30.076 
23:20	49.1	49.1	49.1	83	44.2	0	0	---	0.00	30.076 
23:25	48.9	48.9	48.9	83	44.0	0	0	---	0.00	30.076 
23:30	48.8	48.8	48.8	84	44.2	0	0	---	0.00	30.078 
23:35	48.8	48.8	48.8	84	44.2	0	0	---	0.00	30.078 
23:40	48.8	48.8	48.8	84	44.2	0	0	---	0.00	30.078 
23:45	48.8	48.8	48.8	84	44.2	0	0	---	0.00	30.072 
23:50	48.8	48.8	48.8	84	44.2	0	0	---	0.00	30.072 
23:55	48.8	48.8	48.8	84	44.2	0	0	---	0.00	30.072 

CoCoRaHS
IN-AL-39
A2 Web Hosting
Creative Commons License
GoDaddy
search engine by freefind advanced

loaded 2018-11-19 11:10:08 • last modified 2010-11-18 10:43:29
Privacy PolicyDisclaimer
• wx.awcolley.com is powered by PmWiki v.2002016 •
• all content (unless otherwise noted) © 2018 A W Colley